Time;durP1;ratioP1;P1;durP2;ratioP2;P2;SDS_P1;SDS_P2;PMS_P1;PMS_P2;Temp;Humidity;BMP_temperature;BMP_pressure;BME280_temperature;BME280_humidity;BME280_pressure;Samples;Min_cycle;Max_cycle;Signal;HPM_P1;HPM_P2
2021/05/17 00:00:27;;;;;;;1.03;0.40;;;22.10;42.50;;;;;;5051053;28;20825;-57
2021/05/17 00:02:56;;;;;;;0.60;0.22;;;22.00;42.50;;;;;;5051262;28;20413;-57
2021/05/17 00:05:23;;;;;;;0.57;0.30;;;22.00;42.50;;;;;;5051386;28;20405;-57
2021/05/17 00:07:48;;;;;;;0.55;0.30;;;22.00;42.50;;;;;;5051495;28;20748;-57
2021/05/17 00:10:15;;;;;;;0.68;0.30;;;22.00;42.50;;;;;;5051414;28;20447;-57
2021/05/17 00:12:41;;;;;;;0.60;0.30;;;22.00;42.50;;;;;;5050799;28;20439;-57
2021/05/17 00:15:11;;;;;;;0.77;0.20;;;22.00;42.40;;;;;;5051398;28;20385;-57
2021/05/17 00:17:38;;;;;;;0.50;0.30;;;22.00;42.50;;;;;;5050013;28;20401;-57
2021/05/17 00:20:06;;;;;;;0.60;0.30;;;22.00;42.50;;;;;;5051324;28;20381;-57
2021/05/17 00:22:32;;;;;;;0.60;0.30;;;22.00;42.40;;;;;;5050871;28;20909;-57
2021/05/17 00:24:59;;;;;;;0.45;0.20;;;22.00;42.40;;;;;;5051171;28;20413;-57
2021/05/17 00:27:25;;;;;;;0.50;0.30;;;22.00;42.40;;;;;;5049744;28;20746;-58
2021/05/17 00:29:51;;;;;;;0.40;0.20;;;21.90;42.30;;;;;;5050951;28;20404;-58
2021/05/17 00:32:17;;;;;;;0.82;0.30;;;22.00;42.40;;;;;;5051157;28;20784;-58
2021/05/17 00:34:43;;;;;;;0.40;0.30;;;22.00;42.40;;;;;;5050816;28;20424;-58
2021/05/17 00:37:09;;;;;;;0.63;0.22;;;21.90;42.30;;;;;;5051376;28;20392;-58
2021/05/17 00:39:35;;;;;;;0.30;0.20;;;21.90;42.30;;;;;;5051208;28;20393;-58
2021/05/17 00:42:02;;;;;;;0.50;0.20;;;21.90;42.30;;;;;;5051182;28;20741;-57
2021/05/17 00:44:28;;;;;;;0.40;0.20;;;22.00;42.40;;;;;;5050579;28;20937;-57
2021/05/17 00:46:55;;;;;;;0.30;0.20;;;21.90;42.30;;;;;;5051230;28;20390;-59
2021/05/17 00:49:21;;;;;;;0.20;0.20;;;21.90;42.30;;;;;;5051050;28;20417;-58
2021/05/17 00:51:47;;;;;;;0.45;0.22;;;21.90;42.30;;;;;;5051225;28;20809;-58
2021/05/17 00:54:12;;;;;;;0.50;0.25;;;21.90;42.30;;;;;;5051118;28;20469;-58
2021/05/17 00:56:38;;;;;;;0.30;0.20;;;21.90;42.30;;;;;;5050373;28;20381;-58
2021/05/17 00:59:05;;;;;;;0.37;0.20;;;21.90;42.20;;;;;;5050796;28;20415;-58
2021/05/17 01:01:30;;;;;;;0.45;0.20;;;21.90;42.80;;;;;;5050969;28;20389;-57
2021/05/17 01:03:56;;;;;;;0.25;0.20;;;21.90;42.20;;;;;;5049491;28;20421;-59
2021/05/17 01:06:23;;;;;;;0.40;0.20;;;21.90;42.20;;;;;;5052821;28;20368;-58
2021/05/17 01:08:57;;;;;;;0.40;0.30;;;21.90;42.10;;;;;;5054491;28;20404;-58
2021/05/17 01:11:28;;;;;;;0.50;0.30;;;21.90;42.20;;;;;;5054821;28;20381;-58
2021/05/17 01:13:56;;;;;;;0.40;0.20;;;21.90;42.10;;;;;;5054747;28;20443;-58
2021/05/17 01:16:23;;;;;;;0.80;0.20;;;21.90;42.10;;;;;;5054684;28;20476;-57
2021/05/17 01:18:51;;;;;;;0.30;0.20;;;21.80;42.10;;;;;;5054556;28;20390;-57
2021/05/17 01:21:19;;;;;;;0.50;0.20;;;21.90;42.10;;;;;;5054514;28;20427;-57
2021/05/17 01:23:57;;;;;;;0.40;0.20;;;21.90;42.10;;;;;;5054414;28;20412;-58
2021/05/17 01:26:26;;;;;;;0.43;0.22;;;21.80;42.10;;;;;;5054288;28;20478;-57
2021/05/17 01:29:04;;;;;;;0.40;0.20;;;21.80;42.10;;;;;;5053957;28;20409;-58
2021/05/17 01:31:30;;;;;;;0.40;0.10;;;21.80;42.10;;;;;;5054518;28;20441;-58
2021/05/17 01:33:57;;;;;;;0.20;0.10;;;21.80;42.10;;;;;;5054213;28;20386;-59
2021/05/17 01:36:23;;;;;;;0.30;0.20;;;21.80;42.20;;;;;;5054322;28;20390;-57
2021/05/17 01:38:51;;;;;;;0.40;0.20;;;21.80;42.20;;;;;;5053852;28;20750;-57
2021/05/17 01:41:19;;;;;;;0.32;0.20;;;21.80;42.20;;;;;;5054213;28;20386;-57
2021/05/17 01:43:48;;;;;;;0.30;0.20;;;21.80;42.10;;;;;;5052167;28;20418;-57
2021/05/17 01:46:16;;;;;;;0.40;0.20;;;21.80;42.10;;;;;;5053637;28;20429;-57
2021/05/17 01:48:44;;;;;;;0.25;0.20;;;21.80;42.20;;;;;;5053629;28;20394;-57
2021/05/17 01:51:12;;;;;;;0.38;0.22;;;21.80;42.10;;;;;;5053987;28;20388;-58
2021/05/17 01:53:39;;;;;;;0.30;0.20;;;21.80;42.10;;;;;;5053778;28;20762;-57
2021/05/17 01:56:06;;;;;;;0.28;0.20;;;21.80;42.10;;;;;;5054133;28;20381;-57
2021/05/17 01:58:33;;;;;;;0.70;0.20;;;21.80;42.10;;;;;;5052162;28;20481;-57
2021/05/17 02:00:59;;;;;;;0.20;0.10;;;21.70;42.10;;;;;;5054126;28;20413;-58
2021/05/17 02:03:25;;;;;;;0.30;0.20;;;21.80;42.20;;;;;;5063060;28;20414;-57
2021/05/17 02:05:52;;;;;;;0.20;0.10;;;21.80;42.20;;;;;;5073763;28;20487;-57
2021/05/17 02:08:17;;;;;;;0.20;0.10;;;21.80;42.20;;;;;;5073687;28;20384;-57
2021/05/17 02:10:45;;;;;;;0.30;0.20;;;21.70;42.10;;;;;;5073116;28;20462;-58
2021/05/17 02:13:19;;;;;;;0.40;0.10;;;21.70;42.20;;;;;;5073558;28;20384;-58
2021/05/17 02:15:47;;;;;;;0.30;0.20;;;21.70;42.20;;;;;;5073665;28;20856;-58
2021/05/17 02:18:13;;;;;;;0.60;0.20;;;21.70;42.10;;;;;;5072884;28;20387;-58
2021/05/17 02:20:41;;;;;;;0.22;0.15;;;21.70;42.10;;;;;;5073034;28;20391;-58
2021/05/17 02:23:09;;;;;;;0.70;0.20;;;21.70;42.10;;;;;;5073266;28;20411;-58
2021/05/17 02:25:40;;;;;;;0.13;0.10;;;21.70;42.10;;;;;;5073432;28;20392;-58
2021/05/17 02:28:06;;;;;;;0.20;0.20;;;21.70;42.10;;;;;;5073031;28;20458;-58
2021/05/17 02:30:32;;;;;;;0.20;0.10;;;21.70;42.20;;;;;;5073175;28;20474;-58
2021/05/17 02:32:58;;;;;;;0.20;0.10;;;21.70;42.10;;;;;;5073178;28;20372;-58
2021/05/17 02:35:24;;;;;;;0.30;0.20;;;21.70;42.20;;;;;;5073227;28;20446;-57
2021/05/17 02:37:50;;;;;;;0.20;0.10;;;21.70;42.10;;;;;;5073140;28;20372;-58
2021/05/17 02:40:16;;;;;;;0.30;0.20;;;21.70;42.10;;;;;;5073158;28;20483;-57
2021/05/17 02:42:45;;;;;;;0.30;0.20;;;21.70;42.20;;;;;;5072600;28;20430;-58
2021/05/17 02:45:12;;;;;;;0.20;0.20;;;21.70;42.20;;;;;;5072826;28;20418;-58
2021/05/17 02:47:39;;;;;;;0.32;0.15;;;21.70;42.20;;;;;;5073002;28;20905;-57
2021/05/17 02:50:11;;;;;;;0.45;0.20;;;21.70;42.30;;;;;;5073055;28;20453;-57
2021/05/17 02:52:37;;;;;;;0.20;0.20;;;21.70;42.20;;;;;;5072370;28;20494;-57
2021/05/17 02:55:12;;;;;;;0.57;0.20;;;21.70;42.20;;;;;;5054764;28;20388;-57
2021/05/17 02:57:43;;;;;;;0.20;0.20;;;21.70;42.30;;;;;;5072677;28;20396;-58
2021/05/17 03:00:19;;;;;;;0.20;0.20;;;21.60;42.20;;;;;;5054727;28;20392;-57
2021/05/17 03:03:03;;;;;;;0.20;0.15;;;21.70;42.30;;;;;;5071955;28;20496;-57
2021/05/17 03:05:32;;;;;;;0.20;0.20;;;21.60;42.20;;;;;;5072730;28;20402;-57
2021/05/17 03:08:04;;;;;;;0.40;0.20;;;21.70;42.30;;;;;;5072439;28;20388;-57
2021/05/17 03:10:32;;;;;;;1.00;0.10;;;21.70;42.90;;;;;;5072271;28;20384;-58
2021/05/17 03:13:04;;;;;;;1.17;0.20;;;21.60;43.30;;;;;;5053998;28;20392;-59
2021/05/17 03:15:31;;;;;;;1.80;0.20;;;21.70;43.10;;;;;;5071177;28;20860;-57
2021/05/17 03:17:57;;;;;;;1.10;0.20;;;21.70;43.70;;;;;;5072112;28;20392;-58
2021/05/17 03:20:24;;;;;;;1.13;0.20;;;21.80;44.20;;;;;;5072260;28;20386;-58
2021/05/17 03:22:51;;;;;;;1.17;0.20;;;21.70;43.70;;;;;;5071768;28;20437;-57
2021/05/17 03:25:23;;;;;;;0.73;0.17;;;21.70;44.70;;;;;;5065373;28;20437;-57
2021/05/17 03:27:49;;;;;;;0.98;0.20;;;21.80;45.00;;;;;;5060418;28;20395;-57
2021/05/17 03:30:17;;;;;;;1.70;0.20;;;21.90;45.20;;;;;;5058988;28;20397;-57
2021/05/17 03:32:42;;;;;;;0.47;0.10;;;21.90;45.20;;;;;;5071407;28;20384;-58
2021/05/17 03:35:08;;;;;;;3.10;0.23;;;21.90;45.20;;;;;;5071759;28;20438;-57
2021/05/17 03:37:34;;;;;;;2.80;0.30;;;21.90;44.90;;;;;;5072044;28;20392;-57
2021/05/17 03:40:00;;;;;;;3.28;0.68;;;22.00;45.10;;;;;;5071725;28;20804;-57
2021/05/17 03:42:26;;;;;;;4.45;0.20;;;22.00;45.10;;;;;;5071327;28;20864;-57
2021/05/17 03:44:51;;;;;;;2.57;0.30;;;22.00;45.00;;;;;;5071250;28;20412;-57
2021/05/17 03:47:17;;;;;;;1.85;0.20;;;22.00;44.80;;;;;;5071825;28;20425;-57
2021/05/17 03:49:43;;;;;;;1.50;0.20;;;22.00;44.70;;;;;;5071895;28;20452;-57
2021/05/17 03:52:09;;;;;;;0.90;0.20;;;22.00;44.50;;;;;;5071933;28;20383;-57
2021/05/17 03:54:35;;;;;;;1.63;0.20;;;21.90;43.90;;;;;;5071369;28;20396;-58
2021/05/17 03:57:00;;;;;;;1.85;0.20;;;21.90;44.90;;;;;;5071295;28;20867;-58
2021/05/17 03:59:26;;;;;;;0.57;0.20;;;21.90;45.00;;;;;;5071058;28;20392;-58
2021/05/17 04:01:52;;;;;;;1.30;0.20;;;21.90;44.00;;;;;;5071670;28;20871;-58
2021/05/17 04:04:20;;;;;;;1.63;0.20;;;21.90;44.50;;;;;;5071234;28;20480;-58
2021/05/17 04:14:40;;;;;;;1.90;0.30;;;21.80;43.80;;;;;;5071321;28;20925;-63
2021/05/17 04:17:06;;;;;;;2.38;0.30;;;21.70;43.70;;;;;;5071496;28;20392;-64
2021/05/17 04:19:32;;;;;;;1.70;0.30;;;21.70;43.60;;;;;;5071477;28;20430;-63
2021/05/17 04:21:57;;;;;;;2.40;0.40;;;21.70;44.10;;;;;;5071744;28;20391;-64
2021/05/17 04:24:23;;;;;;;2.33;0.20;;;21.70;43.50;;;;;;5071353;28;20938;-62
2021/05/17 04:26:49;;;;;;;5.72;0.40;;;21.70;43.30;;;;;;5071005;28;20388;-63
2021/05/17 04:29:15;;;;;;;3.10;0.60;;;21.70;43.30;;;;;;5070801;28;20455;-65
2021/05/17 04:31:40;;;;;;;2.22;0.30;;;21.70;43.30;;;;;;5058349;28;20388;-64
2021/05/17 04:34:06;;;;;;;2.50;0.30;;;21.70;43.00;;;;;;5063458;28;20417;-63
2021/05/17 04:36:32;;;;;;;2.60;0.33;;;21.70;42.90;;;;;;5053845;28;20803;-64
2021/05/17 04:39:02;;;;;;;2.67;0.50;;;21.70;42.70;;;;;;5050821;28;20904;-64
2021/05/17 04:41:28;;;;;;;0.68;0.20;;;21.60;43.00;;;;;;5053160;28;20493;-59
2021/05/17 04:43:54;;;;;;;1.80;0.30;;;21.60;42.70;;;;;;5070225;28;21033;-60
2021/05/17 04:46:19;;;;;;;2.35;0.30;;;21.60;42.80;;;;;;5075357;28;20434;-58
2021/05/17 04:48:51;;;;;;;1.50;0.30;;;21.60;43.00;;;;;;5074778;28;20720;-58
2021/05/17 04:51:18;;;;;;;1.33;0.20;;;21.60;42.90;;;;;;5075114;28;20375;-60
2021/05/17 04:53:44;;;;;;;2.05;0.22;;;21.60;42.90;;;;;;5074877;28;20372;-62
2021/05/17 04:56:10;;;;;;;2.28;0.35;;;21.60;42.80;;;;;;5074793;28;20387;-59
2021/05/17 04:58:36;;;;;;;1.30;0.22;;;21.60;42.70;;;;;;5075087;28;20395;-62
2021/05/17 05:01:02;;;;;;;1.52;0.30;;;21.60;42.80;;;;;;5074375;28;20393;-58
2021/05/17 05:03:29;;;;;;;2.17;0.30;;;21.60;42.80;;;;;;5060154;28;20452;-58
2021/05/17 05:05:55;;;;;;;1.20;0.30;;;21.60;42.80;;;;;;5054706;28;20381;-62
2021/05/17 05:08:21;;;;;;;1.53;0.30;;;21.60;42.80;;;;;;5054625;28;20474;-59
2021/05/17 05:10:47;;;;;;;2.30;0.30;;;21.60;42.70;;;;;;5053162;28;20788;-59
2021/05/17 05:13:12;;;;;;;1.63;0.40;;;21.60;42.60;;;;;;5053796;28;20386;-59
2021/05/17 05:15:38;;;;;;;2.35;0.30;;;21.50;42.60;;;;;;5054174;28;20447;-59
2021/05/17 05:18:04;;;;;;;1.10;0.30;;;21.50;42.60;;;;;;5054364;28;20389;-58
2021/05/17 05:20:31;;;;;;;2.00;0.45;;;21.50;42.60;;;;;;5054788;28;20394;-60
2021/05/17 05:22:57;;;;;;;1.80;0.32;;;21.60;42.60;;;;;;5053802;28;20384;-58
2021/05/17 05:25:24;;;;;;;2.60;0.40;;;21.50;42.70;;;;;;5054565;28;20389;-58
2021/05/17 05:27:53;;;;;;;3.30;0.70;;;21.50;42.60;;;;;;5054417;28;20384;-58
2021/05/17 05:30:27;;;;;;;2.22;0.30;;;21.50;42.60;;;;;;5054050;28;20393;-58
2021/05/17 05:33:15;;;;;;;1.63;0.35;;;21.50;42.50;;;;;;5052210;28;20432;-59
2021/05/17 05:35:43;;;;;;;1.38;0.35;;;21.50;42.40;;;;;;5054374;28;20836;-57
2021/05/17 05:38:09;;;;;;;0.90;0.30;;;21.50;42.80;;;;;;5054274;28;20381;-59
2021/05/17 05:40:35;;;;;;;2.15;0.30;;;21.60;43.00;;;;;;5054413;28;20404;-59
2021/05/17 05:43:01;;;;;;;1.67;0.50;;;21.70;42.90;;;;;;5053504;28;20484;-59
2021/05/17 05:45:27;;;;;;;1.90;0.30;;;21.70;42.60;;;;;;5052808;28;20405;-60
2021/05/17 05:47:53;;;;;;;1.25;0.20;;;21.80;42.40;;;;;;5053331;28;20415;-59
2021/05/17 05:50:18;;;;;;;1.30;0.30;;;21.80;42.10;;;;;;5053733;28;20394;-59
2021/05/17 05:52:44;;;;;;;1.90;0.40;;;21.90;42.00;;;;;;5052761;28;20438;-58
2021/05/17 05:55:10;;;;;;;1.33;0.27;;;21.90;41.90;;;;;;5053856;28;20393;-59
2021/05/17 05:57:41;;;;;;;2.38;0.40;;;22.00;41.90;;;;;;5054030;28;20857;-59
2021/05/17 06:00:09;;;;;;;1.55;0.30;;;22.00;41.70;;;;;;5053852;28;20952;-59
2021/05/17 06:02:34;;;;;;;2.22;0.30;;;22.00;41.70;;;;;;5053600;28;20393;-59
2021/05/17 06:05:00;;;;;;;1.83;0.20;;;22.10;41.70;;;;;;5053179;28;20479;-58
2021/05/17 06:07:26;;;;;;;1.80;0.30;;;22.10;41.60;;;;;;5053692;28;20389;-59
2021/05/17 06:09:51;;;;;;;1.77;0.30;;;22.10;42.10;;;;;;5053732;28;20492;-59
2021/05/17 06:12:19;;;;;;;1.80;0.23;;;22.20;41.50;;;;;;5053422;28;20908;-59
2021/05/17 06:14:46;;;;;;;1.50;0.30;;;22.20;41.40;;;;;;5053345;28;20408;-59
2021/05/17 06:17:12;;;;;;;1.13;0.30;;;22.20;41.80;;;;;;5053397;28;20396;-59
2021/05/17 06:19:38;;;;;;;1.67;0.30;;;22.20;41.30;;;;;;5053520;28;20858;-60
2021/05/17 06:22:04;;;;;;;1.27;0.25;;;22.20;41.30;;;;;;5053066;28;20389;-60
2021/05/17 06:24:31;;;;;;;1.33;0.45;;;22.20;41.10;;;;;;5053303;28;20461;-59
2021/05/17 06:26:56;;;;;;;1.33;0.20;;;22.20;41.10;;;;;;5052873;28;20385;-60
2021/05/17 06:29:22;;;;;;;0.47;0.20;;;22.30;41.10;;;;;;5053356;28;20532;-58
2021/05/17 06:31:49;;;;;;;1.35;0.30;;;22.30;41.10;;;;;;5053273;28;20864;-59
2021/05/17 06:34:15;;;;;;;1.50;0.20;;;22.30;41.10;;;;;;5052862;28;20900;-59
2021/05/17 06:36:41;;;;;;;1.20;0.30;;;22.30;41.00;;;;;;5053101;28;20393;-58
2021/05/17 06:39:09;;;;;;;0.60;0.20;;;22.30;41.00;;;;;;5052901;28;20946;-58
2021/05/17 06:41:35;;;;;;;1.15;0.30;;;22.30;41.00;;;;;;5053165;28;20435;-61
2021/05/17 06:44:02;;;;;;;4.50;0.70;;;22.40;41.10;;;;;;5052783;28;20421;-59
2021/05/17 06:46:28;;;;;;;0.50;0.20;;;22.30;41.00;;;;;;5053029;28;20861;-59
2021/05/17 06:48:54;;;;;;;1.10;0.20;;;22.40;41.00;;;;;;5050958;28;20477;-58
2021/05/17 06:51:19;;;;;;;0.40;0.20;;;22.30;40.90;;;;;;5053092;28;20516;-60
2021/05/17 06:53:48;;;;;;;1.42;0.30;;;22.30;40.90;;;;;;5052825;28;20757;-59
2021/05/17 07:01:18;;;;;;;0.70;0.20;;;22.40;40.70;;;;;;5052774;28;20818;-59
2021/05/17 07:03:44;;;;;;;1.88;0.30;;;22.40;40.70;;;;;;5064594;28;20466;-61
2021/05/17 07:06:12;;;;;;;0.60;0.22;;;22.40;40.70;;;;;;5072777;28;20409;-58
2021/05/17 07:11:35;;;;;;;1.97;0.70;;;22.50;40.70;;;;;;5072747;28;20399;-59
2021/05/17 07:14:01;;;;;;;0.93;0.30;;;22.50;40.60;;;;;;5072426;28;20431;-59
2021/05/17 07:16:28;;;;;;;0.93;0.20;;;22.50;40.60;;;;;;5072340;28;20412;-59
2021/05/17 07:18:53;;;;;;;0.75;0.28;;;22.50;40.50;;;;;;5071571;28;20469;-59
2021/05/17 07:23:45;;;;;;;1.20;0.20;;;22.50;40.40;;;;;;5072069;28;20846;-58
2021/05/17 07:26:17;;;;;;;1.30;0.30;;;22.50;40.50;;;;;;5072121;28;20391;-59
2021/05/17 07:28:45;;;;;;;0.82;0.20;;;22.50;40.30;;;;;;5072296;28;20376;-60
2021/05/17 07:31:11;;;;;;;1.20;0.30;;;22.60;40.40;;;;;;5071709;28;20379;-61
2021/05/17 07:33:38;;;;;;;0.73;0.30;;;22.50;40.30;;;;;;5072098;28;20387;-58
2021/05/17 07:36:05;;;;;;;1.75;0.22;;;22.60;40.30;;;;;;5071568;28;20871;-61
2021/05/17 07:38:32;;;;;;;1.20;0.30;;;22.60;40.30;;;;;;5072299;28;20380;-61
2021/05/17 07:40:59;;;;;;;0.77;0.30;;;22.70;40.20;;;;;;5071424;28;20458;-59
2021/05/17 07:43:25;;;;;;;1.50;0.30;;;22.60;40.10;;;;;;5071850;28;20755;-59
2021/05/17 07:45:52;;;;;;;0.60;0.20;;;22.70;40.20;;;;;;5071810;28;20396;-58
2021/05/17 07:48:17;;;;;;;3.03;0.20;;;22.70;40.10;;;;;;5071839;28;20384;-59
2021/05/17 07:50:44;;;;;;;2.17;0.33;;;22.70;40.00;;;;;;5071817;28;20809;-59
2021/05/17 07:53:09;;;;;;;4.53;0.32;;;22.70;40.10;;;;;;5071193;28;20421;-59
2021/05/17 07:55:35;;;;;;;1.88;0.30;;;22.70;40.30;;;;;;5071802;28;20395;-59
2021/05/17 07:58:01;;;;;;;1.63;0.50;;;22.70;40.20;;;;;;5071648;28;20863;-58
2021/05/17 08:00:27;;;;;;;1.60;0.30;;;22.80;40.50;;;;;;5071734;28;20477;-60
2021/05/17 08:02:52;;;;;;;0.85;0.30;;;22.80;40.50;;;;;;5071266;28;20398;-62
2021/05/17 08:05:18;;;;;;;1.67;0.30;;;22.80;40.50;;;;;;5071463;28;20430;-59
2021/05/17 08:07:44;;;;;;;2.05;0.40;;;22.80;40.40;;;;;;5071603;28;20388;-59
2021/05/17 08:10:11;;;;;;;0.93;0.20;;;22.80;40.40;;;;;;5071505;28;20397;-59
2021/05/17 08:12:37;;;;;;;0.93;0.28;;;22.80;40.40;;;;;;5071734;28;20429;-59
2021/05/17 08:15:04;;;;;;;2.40;0.30;;;22.80;40.20;;;;;;5070616;28;20403;-59
2021/05/17 08:17:30;;;;;;;3.35;0.40;;;22.90;40.30;;;;;;5053422;28;20391;-59
2021/05/17 08:19:56;;;;;;;3.35;0.30;;;22.90;40.30;;;;;;5071363;28;20786;-61
2021/05/17 08:22:22;;;;;;;3.40;0.55;;;22.90;40.20;;;;;;5071502;28;20394;-59
2021/05/17 08:24:48;;;;;;;2.75;0.30;;;22.90;40.30;;;;;;5071224;28;20415;-59
2021/05/17 08:27:14;;;;;;;1.30;0.30;;;22.90;40.20;;;;;;5071210;28;20786;-59
2021/05/17 08:29:40;;;;;;;1.63;0.30;;;22.90;40.30;;;;;;5071367;28;20565;-59
2021/05/17 08:32:10;;;;;;;2.40;0.35;;;22.90;40.20;;;;;;5071369;28;20928;-60
2021/05/17 08:34:36;;;;;;;1.75;0.40;;;22.90;40.20;;;;;;5071409;28;20436;-59
2021/05/17 08:37:03;;;;;;;2.83;0.30;;;22.90;40.10;;;;;;5070252;28;20467;-58
2021/05/17 08:39:29;;;;;;;1.45;0.20;;;23.00;40.20;;;;;;5070873;28;20398;-60
2021/05/17 08:41:59;;;;;;;0.70;0.22;;;22.90;40.10;;;;;;5071266;28;20391;-59
2021/05/17 08:44:26;;;;;;;1.20;0.30;;;22.90;40.10;;;;;;5071312;28;20404;-62
2021/05/17 08:46:52;;;;;;;1.50;0.40;;;22.90;40.10;;;;;;5070965;28;20380;-59
2021/05/17 08:49:18;;;;;;;1.17;0.40;;;23.00;40.10;;;;;;5071255;28;20458;-60
2021/05/17 08:51:46;;;;;;;1.25;0.40;;;23.00;40.10;;;;;;5071120;28;20403;-61
2021/05/17 08:54:12;;;;;;;1.10;0.40;;;22.90;40.00;;;;;;5071097;28;20411;-59
2021/05/17 08:56:45;;;;;;;2.23;0.63;;;23.00;40.20;;;;;;5071569;28;20384;-60
2021/05/17 08:59:14;;;;;;;3.17;0.40;;;23.00;40.10;;;;;;5052633;28;20399;-58
2021/05/17 09:01:41;;;;;;;5.18;0.60;;;23.00;40.10;;;;;;5071087;28;20445;-59
2021/05/17 09:04:11;;;;;;;3.80;0.30;;;23.00;40.10;;;;;;5070692;28;20503;-59
2021/05/17 09:06:42;;;;;;;2.05;0.40;;;23.00;40.10;;;;;;5071047;28;20467;-59
2021/05/17 09:09:22;;;;;;;1.50;0.50;;;23.00;40.10;;;;;;5070463;28;20888;-59
2021/05/17 09:11:50;;;;;;;2.63;0.50;;;23.00;40.10;;;;;;5070965;28;20939;-60
2021/05/17 09:14:16;;;;;;;1.73;0.35;;;23.00;40.10;;;;;;5070880;28;20379;-60
2021/05/17 09:17:02;;;;;;;3.95;0.40;;;23.00;40.10;;;;;;5070946;28;20388;-59
2021/05/17 09:19:31;;;;;;;4.22;0.47;;;23.00;40.10;;;;;;5071053;28;20458;-59
2021/05/17 09:21:58;;;;;;;5.07;0.45;;;23.00;40.10;;;;;;5070778;28;20413;-59
2021/05/17 09:24:46;;;;;;;2.50;0.65;;;23.00;40.10;;;;;;5070960;28;20493;-60
2021/05/17 09:27:25;;;;;;;3.88;0.50;;;23.00;40.00;;;;;;5070274;28;20868;-60
2021/05/17 09:29:53;;;;;;;3.08;0.30;;;23.00;40.10;;;;;;5074445;28;20748;-60
2021/05/17 09:32:21;;;;;;;4.10;0.50;;;23.00;40.00;;;;;;5074317;28;20380;-60
2021/05/17 09:34:57;;;;;;;5.47;0.38;;;23.10;40.10;;;;;;5074368;28;20480;-59
2021/05/17 09:37:23;;;;;;;2.30;0.30;;;23.10;40.10;;;;;;5074168;28;20383;-61
2021/05/17 09:39:51;;;;;;;2.60;0.30;;;23.10;40.10;;;;;;5073892;28;20442;-59
2021/05/17 09:42:23;;;;;;;2.50;0.40;;;23.10;40.00;;;;;;5074116;28;20487;-61
2021/05/17 09:44:49;;;;;;;5.43;0.55;;;23.10;40.00;;;;;;5074070;28;20994;-62
2021/05/17 09:47:23;;;;;;;3.72;0.43;;;23.10;40.10;;;;;;5073570;28;20388;-59
2021/05/17 09:49:51;;;;;;;2.80;0.40;;;23.10;40.10;;;;;;5074081;28;20875;-60
2021/05/17 09:52:24;;;;;;;3.35;0.35;;;23.20;40.00;;;;;;5073881;28;20906;-61
2021/05/17 09:55:07;;;;;;;4.00;0.38;;;23.20;40.10;;;;;;5073365;28;20453;-59
2021/05/17 09:57:41;;;;;;;3.80;0.30;;;23.10;40.10;;;;;;5073672;28;20380;-59
2021/05/17 10:00:22;;;;;;;2.07;0.50;;;23.10;40.10;;;;;;5055908;28;20732;-62
2021/05/17 10:02:55;;;;;;;5.78;0.50;;;23.10;40.20;;;;;;5073659;28;20396;-64
2021/05/17 10:05:26;;;;;;;2.80;0.40;;;23.10;40.10;;;;;;5073323;28;20919;-64
2021/05/17 10:08:03;;;;;;;3.67;0.40;;;23.10;40.10;;;;;;5073623;28;20392;-62
2021/05/17 10:10:30;;;;;;;3.13;0.40;;;23.20;40.10;;;;;;5073659;28;20396;-64
2021/05/17 10:12:59;;;;;;;4.57;0.65;;;23.10;40.00;;;;;;5073439;28;20375;-64
2021/05/17 10:15:27;;;;;;;5.65;0.50;;;23.20;40.00;;;;;;5073558;28;20414;-61
2021/05/17 10:17:53;;;;;;;5.10;0.40;;;23.20;40.30;;;;;;5073532;28;20415;-61
2021/05/17 10:20:23;;;;;;;2.60;0.40;;;23.20;40.10;;;;;;5073453;28;20387;-63
2021/05/17 10:22:51;;;;;;;2.78;0.40;;;23.20;40.10;;;;;;5073397;28;20437;-59
2021/05/17 10:25:26;;;;;;;2.33;0.40;;;23.20;40.10;;;;;;5072627;28;20511;-59
2021/05/17 10:27:54;;;;;;;2.67;0.35;;;23.30;40.10;;;;;;5055300;28;20740;-61
2021/05/17 10:30:23;;;;;;;1.90;0.40;;;23.30;40.10;;;;;;5073312;28;20431;-60
2021/05/17 10:32:52;;;;;;;2.33;0.30;;;23.30;40.00;;;;;;5055524;28;20388;-58
2021/05/17 10:35:23;;;;;;;2.72;0.35;;;23.20;40.00;;;;;;5072688;28;20482;-58
2021/05/17 10:37:50;;;;;;;1.60;0.50;;;23.20;40.00;;;;;;5073220;28;20430;-58
2021/05/17 10:40:45;;;;;;;2.63;0.40;;;23.30;40.10;;;;;;5072664;28;20470;-60
2021/05/17 10:48:25;;;;;;;1.85;0.30;;;23.30;40.00;;;;;;5073031;28;20379;-59
2021/05/17 10:51:16;;;;;;;2.63;0.30;;;23.30;39.90;;;;;;5072863;28;20395;-59
2021/05/17 10:53:55;;;;;;;1.60;0.20;;;23.30;40.00;;;;;;5072869;28;20463;-60
2021/05/17 10:56:43;;;;;;;2.97;0.35;;;23.30;39.90;;;;;;5072677;28;20388;-59
2021/05/17 11:02:08;;;;;;;1.90;0.40;;;23.30;39.90;;;;;;5072634;28;20732;-63
2021/05/17 11:04:36;;;;;;;2.35;0.30;;;23.40;39.90;;;;;;5072337;28;20435;-62
2021/05/17 11:07:20;;;;;;;1.65;0.20;;;23.40;39.90;;;;;;5072226;28;20380;-64
2021/05/17 11:09:52;;;;;;;1.10;0.20;;;23.30;39.80;;;;;;5072563;28;20471;-62
2021/05/17 11:12:26;;;;;;;3.05;0.40;;;23.40;39.90;;;;;;5072458;28;20863;-60
2021/05/17 11:15:11;;;;;;;2.40;0.25;;;23.40;39.90;;;;;;5072429;28;20387;-60
2021/05/17 11:17:54;;;;;;;1.90;0.30;;;23.40;39.90;;;;;;5072362;28;20407;-59
2021/05/17 11:20:38;;;;;;;2.20;0.30;;;23.40;39.90;;;;;;5072498;28;20384;-61
2021/05/17 11:23:05;;;;;;;0.52;0.20;;;23.40;39.80;;;;;;5071871;28;20391;-59
2021/05/17 11:25:47;;;;;;;2.43;0.23;;;23.40;39.80;;;;;;5072140;28;20554;-59
2021/05/17 11:28:14;;;;;;;1.15;0.30;;;23.40;39.80;;;;;;5072117;28;20376;-60
2021/05/17 11:30:45;;;;;;;2.58;0.32;;;23.50;39.90;;;;;;5072127;28;20384;-60
2021/05/17 11:33:12;;;;;;;3.70;0.38;;;23.50;39.80;;;;;;5071527;28;20399;-63
2021/05/17 11:35:57;;;;;;;2.95;0.30;;;23.50;39.80;;;;;;5072064;28;20476;-58
2021/05/17 11:38:22;;;;;;;3.15;0.30;;;23.50;39.80;;;;;;5071947;28;20457;-60
2021/05/17 11:40:52;;;;;;;3.97;0.50;;;23.50;39.80;;;;;;5071901;28;20883;-62
2021/05/17 11:43:20;;;;;;;4.10;0.30;;;23.50;39.80;;;;;;5071321;28;20387;-59
2021/05/17 11:45:46;;;;;;;3.92;0.30;;;23.50;39.80;;;;;;5072154;28;20395;-62
2021/05/17 11:48:12;;;;;;;3.47;0.60;;;23.50;39.80;;;;;;5071852;28;20384;-60
2021/05/17 11:50:37;;;;;;;3.00;0.57;;;23.50;39.80;;;;;;5071024;28;20945;-62
2021/05/17 11:53:03;;;;;;;5.10;0.40;;;23.50;39.60;;;;;;5071507;28;20388;-63
2021/05/17 11:55:29;;;;;;;5.07;0.40;;;23.50;39.60;;;;;;5071678;28;20379;-61
2021/05/17 11:57:56;;;;;;;4.00;0.30;;;23.50;39.60;;;;;;5071716;28;20437;-60
2021/05/17 12:00:25;;;;;;;3.42;0.30;;;23.50;39.50;;;;;;5071755;28;20388;-61
2021/05/17 12:02:55;;;;;;;1.80;0.30;;;23.50;39.40;;;;;;5071707;28;20403;-64
2021/05/17 12:05:22;;;;;;;1.42;0.20;;;23.50;39.40;;;;;;5071090;28;21267;-60
2021/05/17 12:07:51;;;;;;;0.60;0.20;;;23.50;39.30;;;;;;5071646;28;20429;-58
2021/05/17 12:10:17;;;;;;;2.75;0.63;;;23.60;39.30;;;;;;5071569;28;20400;-60
2021/05/17 12:12:44;;;;;;;1.38;0.25;;;23.50;39.20;;;;;;5071572;28;20383;-59
2021/05/17 12:15:15;;;;;;;1.63;0.22;;;23.60;39.20;;;;;;5071269;28;20403;-62
2021/05/17 12:17:41;;;;;;;1.03;0.20;;;23.60;39.20;;;;;;5071610;28;20442;-58
2021/05/17 12:20:11;;;;;;;1.10;0.30;;;23.60;39.10;;;;;;5071463;28;20802;-59
2021/05/17 12:22:43;;;;;;;1.17;0.30;;;23.60;39.10;;;;;;5071546;28;20383;-59
2021/05/17 12:25:11;;;;;;;0.95;0.20;;;23.60;39.00;;;;;;5070921;28;20424;-62
2021/05/17 12:27:38;;;;;;;0.93;0.45;;;23.60;38.90;;;;;;5071499;28;20379;-59
2021/05/17 12:30:17;;;;;;;1.02;0.20;;;23.60;38.90;;;;;;5071367;28;20391;-59
2021/05/17 12:33:02;;;;;;;1.35;0.30;;;23.60;38.90;;;;;;5071302;28;20376;-59
2021/05/17 12:35:39;;;;;;;1.40;0.20;;;23.60;38.80;;;;;;5053347;28;20413;-59
2021/05/17 12:38:13;;;;;;;1.60;0.23;;;23.70;38.90;;;;;;5071491;28;20416;-59
2021/05/17 12:40:45;;;;;;;0.70;0.30;;;23.60;38.80;;;;;;5071312;28;20380;-64
2021/05/17 12:43:21;;;;;;;1.55;0.20;;;23.60;38.80;;;;;;5070636;28;20418;-60
2021/05/17 12:45:46;;;;;;;0.95;0.25;;;23.60;38.80;;;;;;5071262;28;20391;-61
2021/05/17 12:48:39;;;;;;;0.50;0.20;;;23.60;38.80;;;;;;5071174;28;20402;-60
2021/05/17 12:51:28;;;;;;;0.57;0.30;;;23.60;38.80;;;;;;5070931;28;20940;-64
2021/05/17 12:54:11;;;;;;;1.00;0.20;;;23.70;38.80;;;;;;5071086;28;20391;-62
2021/05/17 12:56:37;;;;;;;0.70;0.20;;;23.70;38.70;;;;;;5071204;28;20956;-59
2021/05/17 12:59:03;;;;;;;0.68;0.20;;;23.70;38.70;;;;;;5071163;28;20479;-61
2021/05/17 13:01:29;;;;;;;0.30;0.10;;;23.60;38.60;;;;;;5071886;28;20967;-59
2021/05/17 13:03:56;;;;;;;1.00;0.20;;;23.70;38.60;;;;;;5074598;28;20502;-59
2021/05/17 13:06:30;;;;;;;4.22;0.40;;;23.60;38.60;;;;;;5074906;28;20384;-59
2021/05/17 13:09:07;;;;;;;1.75;0.20;;;23.60;38.70;;;;;;5074716;28;20788;-64
2021/05/17 13:11:40;;;;;;;3.30;0.50;;;23.90;39.40;;;;;;5074495;28;20403;-64
2021/05/17 13:14:15;;;;;;;1.95;0.20;;;24.10;38.60;;;;;;5074573;28;20479;-62
2021/05/17 13:16:48;;;;;;;1.63;0.30;;;24.20;38.20;;;;;;5074640;28;20391;-64
2021/05/17 13:19:41;;;;;;;1.63;0.20;;;24.20;38.50;;;;;;5073977;28;20467;-62
2021/05/17 13:30:55;;;;;;;1.80;0.28;;;24.40;37.50;;;;;;5074414;28;20382;-62